Time;durP1;ratioP1;P1;durP2;ratioP2;P2;SDS_P1;SDS_P2;PMS_P1;PMS_P2;Temp;Humidity;BMP_temperature;BMP_pressure;BME280_temperature;BME280_humidity;BME280_pressure;Samples;Min_cycle;Max_cycle;Signal;HPM_P1;HPM_P2
2021/04/05 00:00:31;;;;;;;22.23;14.70;;;2.10;99.90;;;0.80;100.00;99816.03;4996732;28;88867;-62
2021/04/05 00:03:42;;;;;;;21.87;15.13;;;2.10;99.90;;;0.75;100.00;99804.94;4995740;28;97264;-61
2021/04/05 00:06:54;;;;;;;22.80;14.20;;;2.10;99.90;;;0.82;100.00;99790.41;5011514;28;96195;-60
2021/04/05 00:10:05;;;;;;;21.97;14.87;;;2.20;99.90;;;0.81;100.00;99786.94;5010427;28;91259;-62
2021/04/05 00:13:20;;;;;;;24.50;15.37;;;2.20;99.90;;;0.80;100.00;99769.47;5001517;28;99959;-61
2021/04/05 00:16:34;;;;;;;22.37;14.67;;;2.20;99.90;;;0.79;100.00;99774.84;4990173;28;99980;-60
2021/04/05 00:19:46;;;;;;;23.27;14.87;;;2.20;99.90;;;0.79;100.00;99764.28;4992080;28;99863;-62
2021/04/05 00:22:59;;;;;;;20.30;13.33;;;2.20;99.90;;;0.94;100.00;99771.13;4991143;28;100132;-61
2021/04/05 00:26:10;;;;;;;21.47;13.93;;;2.20;99.90;;;0.89;100.00;99765.31;4991893;28;99533;-62
2021/04/05 00:29:21;;;;;;;24.50;13.97;;;2.20;99.90;;;0.87;100.00;99762.78;5001071;28;98787;-61
2021/04/05 00:32:33;;;;;;;19.23;13.50;;;2.20;99.90;;;1.03;100.00;99747.56;5015341;28;89728;-62
2021/04/05 00:35:52;;;;;;;16.47;12.40;;;2.20;99.90;;;1.10;100.00;99745.34;5004169;28;95444;-60
2021/04/05 00:39:05;;;;;;;19.23;12.43;;;2.30;99.90;;;1.04;100.00;99738.72;4996983;28;99019;-61
2021/04/05 00:42:18;;;;;;;17.60;13.30;;;2.30;99.90;;;1.02;100.00;99718.69;5001874;28;99573;-62
2021/04/05 00:45:31;;;;;;;18.70;12.17;;;2.40;99.90;;;1.01;100.00;99717.03;5010117;28;95918;-60
2021/04/05 00:48:43;;;;;;;16.37;12.57;;;2.40;99.90;;;0.94;100.00;99698.19;4982125;28;99181;-61
2021/04/05 00:51:56;;;;;;;20.37;12.27;;;2.40;99.90;;;0.93;100.00;99688.63;4978468;28;99606;-62
2021/04/05 00:55:09;;;;;;;21.40;12.53;;;2.40;99.90;;;0.91;100.00;99676.50;5012141;28;94337;-62
2021/04/05 00:58:22;;;;;;;22.80;12.37;;;2.40;99.90;;;0.96;100.00;99667.31;5010089;28;92665;-62
2021/04/05 01:01:36;;;;;;;24.93;12.53;;;2.40;99.90;;;1.03;100.00;99667.69;4995406;28;91726;-61
2021/04/05 01:04:47;;;;;;;19.97;11.93;;;2.40;99.90;;;1.02;100.00;99661.59;4992754;28;95354;-61
2021/04/05 01:07:59;;;;;;;21.53;11.97;;;2.40;99.90;;;1.06;100.00;99649.03;4993075;28;95432;-61
2021/04/05 01:11:12;;;;;;;17.67;11.40;;;2.40;99.90;;;1.00;100.00;99636.31;4989414;28;91400;-60
2021/04/05 01:14:24;;;;;;;22.07;12.20;;;2.40;99.90;;;1.05;100.00;99621.84;5002070;28;86568;-61
2021/04/05 01:17:35;;;;;;;17.00;11.03;;;2.40;99.90;;;0.99;100.00;99616.22;4996589;28;80959;-62
2021/04/05 01:20:47;;;;;;;18.93;11.00;;;2.40;99.90;;;0.99;100.00;99608.31;4987128;28;96313;-60
2021/04/05 01:24:05;;;;;;;19.23;10.50;;;2.40;99.90;;;0.95;100.00;99604.22;4992559;28;93044;-61
2021/04/05 01:27:18;;;;;;;19.37;11.13;;;2.40;99.90;;;0.86;100.00;99589.94;4974690;28;97597;-62
2021/04/05 01:37:18;;;;;;;18.70;12.20;;;2.30;99.90;;;0.79;100.00;99566.78;4996803;28;99395;-62
2021/04/05 01:40:32;;;;;;;18.43;11.57;;;2.30;99.90;;;0.74;100.00;99558.41;4999263;28;98384;-62
2021/04/05 01:43:43;;;;;;;20.97;11.17;;;2.30;99.90;;;0.77;100.00;99552.88;5013993;28;93675;-61
2021/04/05 01:46:55;;;;;;;19.33;11.60;;;2.30;99.90;;;0.79;100.00;99546.56;4997222;28;99897;-61
2021/04/05 01:50:07;;;;;;;23.17;11.53;;;2.30;99.90;;;0.76;100.00;99535.41;4991658;28;100719;-62
2021/04/05 01:53:18;;;;;;;20.83;11.80;;;2.30;99.90;;;0.76;100.00;99525.72;4993290;28;96045;-62
2021/04/05 01:56:32;;;;;;;20.90;11.30;;;2.30;99.90;;;0.81;100.00;99522.75;5003151;28;99378;-61
2021/04/05 01:59:44;;;;;;;21.73;11.63;;;2.30;99.90;;;0.81;100.00;99514.84;4996566;28;99392;-63
2021/04/05 02:02:56;;;;;;;18.63;10.93;;;2.30;99.90;;;0.77;100.00;99513.38;4979640;28;91987;-62
2021/04/05 02:06:16;;;;;;;18.43;11.07;;;2.30;99.90;;;0.81;100.00;99507.78;4977884;28;95791;-61
2021/04/05 02:09:27;;;;;;;24.67;11.97;;;2.30;99.90;;;0.76;100.00;99496.75;4976705;28;100018;-62
2021/04/05 02:12:58;;;;;;;17.87;10.63;;;2.40;99.90;;;0.70;100.00;99484.06;4990380;28;91493;-62
2021/04/05 02:16:10;;;;;;;21.33;10.93;;;2.40;99.90;;;0.66;100.00;99475.53;4989051;28;99098;-62
2021/04/05 02:19:23;;;;;;;16.53;9.60;;;2.40;99.90;;;0.71;100.00;99470.78;4996292;28;98803;-61
2021/04/05 02:22:34;;;;;;;22.97;10.43;;;2.40;99.90;;;0.70;100.00;99455.09;4980917;28;97994;-62
2021/04/05 02:29:08;;;;;;;21.43;12.73;;;2.40;99.90;;;0.83;100.00;99415.50;4997932;28;91470;-60
2021/04/05 02:32:31;;;;;;;21.57;11.47;;;2.40;99.90;;;1.17;100.00;99403.19;4978829;28;95750;-61
2021/04/05 02:35:43;;;;;;;15.60;9.90;;;2.50;99.90;;;1.49;100.00;99416.44;4991649;28;88016;-60
2021/04/05 02:38:56;;;;;;;17.73;10.33;;;2.60;99.90;;;1.62;100.00;99401.31;4987538;28;98123;-61
2021/04/05 02:42:08;;;;;;;21.77;11.27;;;2.70;99.90;;;1.82;100.00;99391.81;4994219;28;99385;-62
2021/04/05 02:45:22;;;;;;;16.83;9.90;;;2.80;99.90;;;1.84;100.00;99379.34;4990584;28;98085;-61
2021/04/05 02:48:34;;;;;;;17.60;11.07;;;2.90;99.90;;;1.85;100.00;99375.75;4975425;28;98950;-61
2021/04/05 02:51:46;;;;;;;16.33;10.07;;;3.10;99.90;;;1.98;100.00;99358.75;4976834;28;99083;-61
2021/04/05 02:54:57;;;;;;;16.83;10.00;;;3.20;99.90;;;2.04;100.00;99352.16;4975705;28;98875;-61
2021/04/05 02:58:10;;;;;;;18.23;9.90;;;3.30;99.90;;;2.13;100.00;99346.94;4977395;28;97763;-61
2021/04/05 03:01:23;;;;;;;14.97;9.17;;;3.40;99.90;;;2.13;100.00;99346.94;4971918;28;97917;-61
2021/04/05 03:04:35;;;;;;;20.47;9.73;;;3.40;99.90;;;2.14;100.00;99335.44;4973736;28;99306;-61
2021/04/05 03:07:46;;;;;;;16.77;9.90;;;3.50;99.90;;;2.10;100.00;99328.72;4975026;28;99672;-62
2021/04/05 03:10:58;;;;;;;17.50;10.10;;;3.60;99.90;;;2.10;100.00;99325.28;4981097;28;94996;-61
2021/04/05 03:14:09;;;;;;;18.00;9.60;;;3.60;99.90;;;2.02;100.00;99306.59;4965845;28;97192;-61
2021/04/05 03:17:27;;;;;;;19.07;10.47;;;3.60;99.90;;;2.15;100.00;99300.16;4980684;28;98278;-62
2021/04/05 03:20:42;;;;;;;19.03;10.87;;;3.60;99.90;;;2.22;100.00;99284.66;4979819;28;97409;-60
2021/04/05 03:27:30;;;;;;;21.50;10.73;;;3.70;99.90;;;2.41;100.00;99260.16;4977290;28;95889;-61
2021/04/05 03:30:45;;;;;;;18.87;9.43;;;3.70;99.90;;;2.56;100.00;99250.09;4965466;28;92235;-62
2021/04/05 03:34:02;;;;;;;20.83;10.73;;;3.70;99.90;;;2.61;100.00;99234.66;4989969;28;88816;-61
2021/04/05 03:37:20;;;;;;;19.43;11.27;;;3.80;99.90;;;2.60;100.00;99212.69;4971939;28;99703;-62
2021/04/05 03:40:33;;;;;;;19.17;10.67;;;3.90;99.90;;;2.71;100.00;99212.63;4973556;28;99001;-62
2021/04/05 03:43:50;;;;;;;18.00;10.20;;;3.90;99.90;;;2.78;100.00;99203.19;4988866;28;99670;-62
2021/04/05 03:47:06;;;;;;;21.80;10.30;;;4.00;99.90;;;2.91;100.00;99199.44;4988097;28;99959;-61
2021/04/05 03:50:24;;;;;;;17.40;10.17;;;4.10;99.90;;;3.03;100.00;99193.91;4987810;28;99523;-62
2021/04/05 03:53:51;;;;;;;25.00;11.00;;;4.10;99.90;;;3.06;100.00;99184.88;4994094;28;95773;-61
2021/04/05 03:57:05;;;;;;;17.00;10.33;;;4.30;99.90;;;3.12;100.00;99182.50;4992217;28;100486;-62
2021/04/05 04:00:21;;;;;;;19.80;11.00;;;4.30;99.90;;;3.24;100.00;99183.22;4988228;28;99613;-61
2021/04/05 04:03:44;;;;;;;20.87;11.50;;;4.40;99.90;;;3.34;100.00;99177.94;4974074;28;99705;-60
2021/04/05 04:07:05;;;;;;;22.23;11.23;;;4.50;99.90;;;3.36;100.00;99171.53;4970456;28;100003;-61
2021/04/05 04:10:19;;;;;;;22.93;10.70;;;4.60;99.90;;;3.50;100.00;99157.88;4973846;28;99385;-61
2021/04/05 04:13:33;;;;;;;20.97;10.83;;;4.60;99.90;;;3.53;100.00;99167.34;4974996;28;98077;-61
2021/04/05 04:16:45;;;;;;;17.00;10.97;;;4.70;99.90;;;3.59;100.00;99153.53;4974570;28;99493;-61
2021/04/05 04:20:09;;;;;;;20.93;10.90;;;4.80;99.90;;;3.69;100.00;99146.44;4981211;28;94844;-63
2021/04/05 04:23:29;;;;;;;18.10;10.63;;;4.90;99.90;;;3.64;100.00;99147.84;4982253;28;98947;-62
2021/04/05 04:26:41;;;;;;;21.97;11.20;;;4.90;99.90;;;3.63;100.00;99139.06;4990867;28;99857;-62
2021/04/05 04:30:09;;;;;;;18.17;9.67;;;5.00;99.90;;;3.68;100.00;99126.25;4994013;28;98044;-61
2021/04/05 04:33:21;;;;;;;24.27;10.30;;;5.00;99.90;;;3.79;100.00;99112.84;4999310;28;96293;-62
2021/04/05 04:36:39;;;;;;;22.70;11.33;;;5.10;99.90;;;3.79;100.00;99101.44;4978277;28;99670;-61
2021/04/05 04:39:51;;;;;;;14.80;9.03;;;5.10;99.90;;;3.83;100.00;99098.34;4991114;28;92940;-62
2021/04/05 04:43:03;;;;;;;19.00;10.23;;;5.20;99.90;;;3.93;100.00;99085.94;4986197;28;91101;-60
2021/04/05 04:46:15;;;;;;;23.03;11.20;;;5.20;99.90;;;3.94;100.00;99089.41;4978487;28;98166;-61
2021/04/05 04:49:27;;;;;;;18.57;10.67;;;5.30;99.90;;;3.95;100.00;99093.75;4979959;28;99468;-62
2021/04/05 04:52:38;;;;;;;18.13;10.57;;;5.30;99.90;;;3.97;100.00;99097.03;4980260;28;96392;-61
2021/04/05 04:55:51;;;;;;;19.33;10.53;;;5.30;99.90;;;3.98;100.00;99098.72;4993904;28;90316;-62
2021/04/05 04:59:06;;;;;;;18.53;11.30;;;5.40;99.90;;;3.98;100.00;99099.56;4995492;28;93562;-61
2021/04/05 05:02:18;;;;;;;23.47;13.07;;;5.40;99.90;;;3.96;100.00;99088.28;4991795;28;85508;-61
2021/04/05 05:05:32;;;;;;;23.77;12.03;;;5.40;99.90;;;4.13;100.00;99077.91;5002879;28;95026;-60
2021/04/05 05:08:45;;;;;;;22.00;10.17;;;5.40;99.90;;;4.16;100.00;99070.50;5010413;28;86442;-62
2021/04/05 05:11:58;;;;;;;21.07;11.27;;;5.40;99.90;;;4.16;100.00;99072.31;5006781;28;94623;-63
2021/04/05 05:15:09;;;;;;;20.00;10.93;;;5.50;99.90;;;4.23;100.00;99058.34;4991661;28;99278;-62
2021/04/05 05:18:23;;;;;;;21.90;10.90;;;5.60;99.90;;;4.25;100.00;99058.19;4995647;28;98891;-62
2021/04/05 05:21:38;;;;;;;20.40;10.67;;;5.60;99.90;;;4.44;100.00;99081.09;5005506;28;95599;-61
2021/04/05 05:24:51;;;;;;;20.20;10.20;;;5.60;99.90;;;4.63;100.00;99073.00;4993166;28;84788;-61
2021/04/05 05:28:11;;;;;;;22.23;11.30;;;5.70;99.90;;;4.76;100.00;99067.34;4987862;28;94522;-60
2021/04/05 05:31:49;;;;;;;21.13;10.20;;;5.80;99.90;;;4.81;100.00;99039.41;4993585;28;87242;-61
2021/04/05 05:35:03;;;;;;;16.27;10.57;;;6.00;99.90;;;4.83;100.00;99036.59;4993211;28;82536;-62
2021/04/05 05:38:17;;;;;;;21.57;11.47;;;6.10;99.90;;;4.97;100.00;99025.44;5002951;28;96104;-61
2021/04/05 05:41:37;;;;;;;21.53;11.17;;;6.20;99.80;;;4.97;100.00;99018.34;4996142;28;91368;-61
2021/04/05 05:45:01;;;;;;;21.70;11.40;;;6.20;99.70;;;4.97;100.00;99010.38;5005147;28;91804;-61
2021/04/05 05:48:21;;;;;;;21.17;10.43;;;6.30;99.30;;;5.09;100.00;99012.78;5010012;28;76273;-61
2021/04/05 05:51:50;;;;;;;20.60;10.77;;;6.40;99.30;;;5.17;100.00;99004.91;5009877;28;82750;-61
2021/04/05 05:58:58;;;;;;;18.23;11.03;;;6.60;98.50;;;5.20;100.00;98978.88;5002156;28;83640;-62
2021/04/05 06:02:48;;;;;;;19.67;11.60;;;6.60;98.20;;;5.30;100.00;98982.28;5012648;28;91222;-61
2021/04/05 06:06:09;;;;;;;22.77;12.03;;;6.70;97.90;;;5.38;100.00;98966.41;4948642;28;89210;-61
2021/04/05 06:09:28;;;;;;;22.13;11.17;;;6.70;97.80;;;5.50;100.00;98964.31;5003899;28;81443;-62
2021/04/05 06:12:58;;;;;;;26.57;12.23;;;6.80;97.40;;;5.63;100.00;98961.25;5010325;28;82962;-62
2021/04/05 06:16:23;;;;;;;19.63;10.57;;;6.90;97.90;;;5.72;100.00;98954.97;5019649;28;86595;-61
2021/04/05 06:19:54;;;;;;;21.77;10.83;;;7.00;96.80;;;5.84;100.00;98956.34;5022841;28;69092;-62
2021/04/05 06:23:30;;;;;;;23.57;11.27;;;7.10;96.40;;;5.97;100.00;98958.56;5024105;28;72426;-62
2021/04/05 06:26:48;;;;;;;19.50;11.23;;;7.30;95.90;;;6.04;100.00;98959.63;5030578;28;49407;-62
2021/04/05 06:30:18;;;;;;;17.07;9.23;;;7.40;95.40;;;6.05;100.00;98943.53;5035105;28;58921;-61
2021/04/05 06:33:39;;;;;;;22.30;10.90;;;7.60;93.70;;;6.02;100.00;98949.16;5035541;28;52547;-61
2021/04/05 06:37:06;;;;;;;23.03;12.77;;;7.70;93.50;;;6.08;100.00;98937.03;5036771;28;51546;-63
2021/04/05 06:40:37;;;;;;;20.77;11.20;;;7.70;94.50;;;6.03;100.00;98934.06;5033230;28;51300;-62
2021/04/05 06:48:00;;;;;;;19.90;12.03;;;7.70;93.80;;;6.11;100.00;98929.59;5023799;28;51042;-63
2021/04/05 06:51:19;;;;;;;19.13;11.43;;;7.80;93.30;;;6.18;100.00;98929.78;5038252;28;51081;-62
2021/04/05 06:55:00;;;;;;;21.30;11.70;;;7.80;93.20;;;6.24;100.00;98921.13;5036614;28;54775;-62
2021/04/05 06:58:46;;;;;;;19.73;10.50;;;7.80;93.20;;;6.35;100.00;98901.38;5022418;28;63798;-62
2021/04/05 07:02:20;;;;;;;18.93;10.67;;;7.90;93.00;;;6.39;100.00;98898.25;4948150;28;63592;-63
2021/04/05 07:06:04;;;;;;;17.50;11.37;;;8.00;92.80;;;6.49;100.00;98882.13;5016461;28;61752;-61
2021/04/05 07:09:23;;;;;;;20.73;11.33;;;8.10;92.40;;;6.58;100.00;98873.16;5010064;28;66849;-63
2021/04/05 07:13:07;;;;;;;24.73;12.57;;;8.20;92.20;;;6.71;100.00;98877.97;5032202;28;61218;-62
2021/04/05 07:16:32;;;;;;;25.00;14.23;;;8.30;91.00;;;6.88;100.00;98863.66;5028620;28;58985;-62
2021/04/05 07:20:20;;;;;;;25.03;12.60;;;8.40;90.50;;;7.04;100.00;98845.03;5037136;28;47701;-63
2021/04/05 07:23:54;;;;;;;19.93;10.80;;;8.60;89.00;;;7.11;100.00;98851.31;5031669;28;52132;-61
2021/04/05 07:27:18;;;;;;;23.33;13.87;;;8.70;87.70;;;7.16;100.00;98832.19;5034722;28;49325;-62
2021/04/05 07:30:35;;;;;;;15.47;9.63;;;8.80;85.30;;;7.19;100.00;98834.47;5040981;28;49481;-59
2021/04/05 07:33:58;;;;;;;17.60;9.27;;;9.00;83.00;;;7.30;100.00;98835.91;5036363;28;51787;-62
2021/04/05 07:37:21;;;;;;;18.27;11.23;;;9.00;81.00;;;7.37;100.00;98818.28;5039233;28;45675;-62
2021/04/05 07:40:45;;;;;;;17.07;10.87;;;9.10;79.30;;;7.41;100.00;98799.16;5038839;28;47859;-61
2021/04/05 07:44:20;;;;;;;17.70;9.73;;;9.20;78.60;;;7.45;100.00;98792.44;5026826;28;53925;-61
2021/04/05 07:54:51;;;;;;;17.20;9.73;;;9.40;77.00;;;7.83;100.00;98788.06;5042735;28;45752;-61
2021/04/05 07:58:19;;;;;;;20.97;10.43;;;9.50;77.00;;;7.79;100.00;98762.78;5040941;28;48916;-60
2021/04/05 08:01:36;;;;;;;18.17;11.07;;;9.70;75.10;;;7.97;100.00;98780.31;5046343;28;42184;-60
2021/04/05 08:04:58;;;;;;;20.20;12.27;;;9.80;74.80;;;7.97;100.00;98772.31;5041761;28;42756;-61
2021/04/05 08:08:22;;;;;;;18.43;12.13;;;9.90;74.30;;;7.96;100.00;98763.50;5041495;28;52635;-60
2021/04/05 08:11:41;;;;;;;20.93;12.33;;;10.00;73.50;;;7.98;100.00;98773.97;5047089;28;48762;-59
2021/04/05 08:15:37;;;;;;;25.87;12.60;;;10.00;72.60;;;8.00;100.00;98742.69;5033846;28;51407;-63
2021/04/05 08:22:43;;;;;;;20.80;11.53;;;10.10;72.90;;;8.16;100.00;98730.03;5034868;28;50755;-62
2021/04/05 08:26:21;;;;;;;18.53;11.47;;;10.20;71.60;;;8.29;100.00;98727.56;5036074;28;50614;-63
2021/04/05 08:29:42;;;;;;;20.53;11.33;;;10.30;70.50;;;8.46;100.00;98717.63;5036375;28;43983;-61
2021/04/05 08:33:11;;;;;;;21.57;13.60;;;10.40;70.10;;;8.44;100.00;98708.97;5039362;28;54802;-61
2021/04/05 08:36:40;;;;;;;21.03;10.77;;;10.60;69.40;;;8.38;100.00;98724.88;5032824;28;59849;-60
2021/04/05 08:39:59;;;;;;;21.90;11.83;;;10.70;68.50;;;8.36;100.00;98710.91;5041810;28;46238;-61
2021/04/05 08:43:27;;;;;;;23.50;12.67;;;10.60;68.70;;;8.44;100.00;98721.47;5043363;28;44503;-61
2021/04/05 08:46:43;;;;;;;20.00;13.33;;;10.60;69.40;;;8.59;100.00;98693.81;5038070;28;48740;-60
2021/04/05 08:50:06;;;;;;;20.43;11.87;;;10.60;70.70;;;8.39;100.00;98713.22;5043919;28;42475;-61
2021/04/05 08:53:31;;;;;;;19.20;11.63;;;10.70;70.20;;;8.54;100.00;98706.84;5045443;28;39520;-62
2021/04/05 09:00:50;;;;;;;18.97;12.13;;;10.70;70.30;;;8.40;100.00;98720.19;4978998;28;48462;-60
2021/04/05 09:04:06;;;;;;;22.63;13.60;;;10.70;70.90;;;8.30;100.00;98699.91;4956052;28;47668;-63
2021/04/05 09:07:36;;;;;;;19.47;13.37;;;10.60;71.60;;;8.11;100.00;98736.91;5033502;28;53657;-61
2021/04/05 09:10:52;;;;;;;20.17;12.77;;;10.50;71.00;;;8.04;100.00;98725.31;5034376;28;51849;-60
2021/04/05 09:14:11;;;;;;;22.10;12.47;;;10.40;71.00;;;8.07;100.00;98725.78;5035898;28;51494;-61
2021/04/05 09:17:41;;;;;;;19.00;12.13;;;10.30;72.00;;;7.95;100.00;98700.59;5039310;28;50094;-60
2021/04/05 09:21:19;;;;;;;20.63;12.07;;;10.30;72.30;;;7.83;100.00;98721.50;5036840;28;53326;-61
2021/04/05 09:24:36;;;;;;;19.57;12.33;;;10.20;72.70;;;7.90;100.00;98716.28;5027319;28;44952;-60
2021/04/05 09:28:12;;;;;;;21.57;12.77;;;10.10;74.30;;;7.82;100.00;98700.38;5040914;28;52892;-59
2021/04/05 09:31:53;;;;;;;24.70;14.57;;;10.00;75.20;;;7.74;100.00;98705.75;5048244;28;41039;-61
2021/04/05 09:35:43;;;;;;;16.13;10.07;;;10.00;77.80;;;7.58;100.00;98706.72;5034070;28;50375;-60
2021/04/05 09:39:15;;;;;;;25.23;14.40;;;9.80;81.10;;;7.25;100.00;98695.47;4978016;28;32359;-61
2021/04/05 09:42:56;;;;;;;23.27;15.10;;;9.50;88.60;;;7.04;100.00;98692.59;5038074;28;38722;-62
2021/04/05 09:46:20;;;;;;;23.30;13.97;;;9.10;93.00;;;6.87;100.00;98678.53;5044336;28;43829;-61
2021/04/05 09:49:46;;;;;;;28.00;16.53;;;8.80;95.50;;;6.69;100.00;98678.78;5034424;28;43590;-63
2021/04/05 09:53:21;;;;;;;21.23;15.27;;;8.40;99.30;;;6.68;100.00;98689.56;5044981;28;42013;-62
2021/04/05 09:56:47;;;;;;;23.70;15.07;;;8.20;99.90;;;6.65;100.00;98696.09;5039694;28;43108;-62
2021/04/05 10:00:12;;;;;;;26.37;13.73;;;7.90;99.90;;;6.54;100.00;98679.69;5024312;28;45535;-62
2021/04/05 10:03:28;;;;;;;30.07;16.73;;;7.80;99.90;;;6.38;100.00;98684.06;5035820;28;45606;-60
2021/04/05 10:06:47;;;;;;;28.10;15.40;;;7.70;99.90;;;6.26;100.00;98688.06;5036847;28;43941;-62
2021/04/05 10:10:00;;;;;;;24.67;15.97;;;7.60;99.90;;;6.16;100.00;98683.94;5039646;27;43734;-61
2021/04/05 10:13:36;;;;;;;24.97;15.07;;;7.50;99.90;;;6.08;100.00;98680.28;5020383;28;44986;-62
2021/04/05 10:20:50;;;;;;;31.93;16.37;;;7.20;99.90;;;5.95;100.00;98679.13;5003494;28;44161;-62
2021/04/05 10:24:04;;;;;;;30.20;17.53;;;7.20;99.90;;;5.89;100.00;98687.78;5020220;28;43380;-62
2021/04/05 10:27:17;;;;;;;28.87;17.00;;;7.10;99.90;;;5.80;100.00;98686.94;5044259;28;52271;-61
2021/04/05 10:30:32;;;;;;;28.47;17.80;;;7.10;99.90;;;5.71;100.00;98695.88;5038045;28;45903;-63
2021/04/05 10:33:48;;;;;;;30.23;17.63;;;7.10;99.90;;;5.64;100.00;98687.75;5043071;28;41240;-63
2021/04/05 10:37:08;;;;;;;32.20;17.67;;;7.00;99.90;;;5.55;100.00;98694.06;5035617;28;50846;-62
2021/04/05 10:40:29;;;;;;;29.67;16.80;;;7.00;99.90;;;5.44;100.00;98694.38;5044193;28;46892;-62
2021/04/05 10:43:45;;;;;;;30.97;17.73;;;6.90;99.90;;;5.27;100.00;98680.28;5037667;28;44295;-62
2021/04/05 10:47:02;;;;;;;30.97;19.70;;;6.90;99.90;;;5.20;100.00;98692.50;5046215;28;42747;-62
2021/04/05 10:50:14;;;;;;;26.23;14.30;;;6.80;99.90;;;5.09;100.00;98684.88;5040339;28;43984;-61
2021/04/05 10:53:31;;;;;;;32.63;19.43;;;6.70;99.90;;;5.04;100.00;98703.09;5031409;28;47558;-61
2021/04/05 10:56:45;;;;;;;31.60;20.70;;;6.70;99.90;;;5.00;100.00;98704.41;5034841;28;50301;-61
2021/04/05 11:00:15;;;;;;;34.87;20.23;;;6.60;99.90;;;4.90;100.00;98709.00;5027022;28;48335;-62
2021/04/05 11:03:32;;;;;;;34.67;21.07;;;6.60;99.90;;;4.83;100.00;98702.69;5031688;28;44575;-60
2021/04/05 11:06:57;;;;;;;25.93;16.20;;;6.50;99.90;;;4.71;100.00;98710.09;5025498;28;45006;-60
2021/04/05 11:10:26;;;;;;;27.97;18.60;;;6.50;99.90;;;4.71;100.00;98696.84;5032674;28;44718;-61
2021/04/05 11:13:40;;;;;;;28.73;18.17;;;6.40;99.90;;;4.66;100.00;98684.09;5035325;28;46849;-60
2021/04/05 11:20:36;;;;;;;26.40;18.13;;;6.30;99.90;;;4.61;100.00;98691.66;5028371;27;51759;-58
2021/04/05 11:23:50;;;;;;;28.33;19.33;;;6.30;99.90;;;4.60;100.00;98684.72;5012352;28;45002;-59
2021/04/05 11:27:03;;;;;;;29.33;19.07;;;6.30;99.90;;;4.52;100.00;98676.75;5036707;28;51177;-57
2021/04/05 11:30:23;;;;;;;29.83;18.53;;;6.20;99.90;;;4.55;100.00;98679.06;5031431;28;48068;-59
2021/04/05 11:33:42;;;;;;;27.67;18.80;;;6.20;99.90;;;4.57;100.00;98766.34;5046249;28;47283;-58
2021/04/05 11:37:00;;;;;;;6.67;4.00;;;6.20;99.90;;;1.61;100.00;98783.53;5039881;28;45806;-66
2021/04/05 11:47:51;;;;;;;1.47;1.30;;;4.40;99.90;;;0.92;100.00;98817.78;5039992;28;48451;-60
2021/04/05 11:51:02;;;;;;;3.40;1.67;;;4.10;99.90;;;0.87;100.00;98829.66;5034261;28;49642;-58
2021/04/05 11:54:21;;;;;;;2.37;1.67;;;3.70;99.90;;;0.81;100.00;98830.22;5039199;28;46231;-60
2021/04/05 11:57:59;;;;;;;1.90;1.47;;;3.60;99.90;;;0.80;100.00;98837.28;5037417;28;48519;-59
2021/04/05 12:01:15;;;;;;;2.37;1.50;;;3.40;99.90;;;0.81;100.00;98838.94;5034604;28;55399;-58
2021/04/05 12:04:32;;;;;;;3.13;1.93;;;3.40;99.90;;;0.80;100.00;98854.88;5036476;28;55097;-60
2021/04/05 12:07:52;;;;;;;2.60;1.90;;;3.30;99.90;;;0.79;100.00;98848.78;5040759;28;56571;-61
2021/04/05 12:11:10;;;;;;;1.77;1.40;;;3.30;99.90;;;0.70;100.00;98844.31;5027381;28;50364;-58
2021/04/05 12:14:26;;;;;;;2.07;1.30;;;3.20;99.90;;;0.87;100.00;98851.56;5029899;28;54918;-60
2021/04/05 12:17:40;;;;;;;2.37;1.40;;;3.20;99.90;;;1.05;100.00;98842.09;5035978;28;50220;-57
2021/04/05 12:20:53;;;;;;;2.77;1.70;;;3.20;99.90;;;1.25;100.00;98842.13;5035523;28;52117;-59
2021/04/05 12:24:13;;;;;;;1.67;1.20;;;3.30;99.90;;;1.15;100.00;98826.31;5035041;28;54705;-59
2021/04/05 12:27:26;;;;;;;2.73;1.80;;;3.40;99.90;;;1.61;100.00;98820.44;5033934;28;53511;-60
2021/04/05 12:30:44;;;;;;;3.00;1.67;;;3.50;99.90;;;1.50;100.00;98823.19;5044394;28;49994;-58
2021/04/05 12:34:02;;;;;;;1.53;1.33;;;3.70;99.90;;;1.34;100.00;98823.75;5038089;28;50551;-60
2021/04/05 12:37:21;;;;;;;2.50;1.40;;;3.70;99.90;;;1.46;100.00;98821.81;5029899;28;47631;-58
2021/04/05 12:40:33;;;;;;;2.23;1.07;;;3.80;99.90;;;1.44;100.00;98827.22;5041683;28;53614;-59
2021/04/05 12:43:47;;;;;;;2.10;1.20;;;3.80;99.90;;;1.65;100.00;98826.28;5032302;28;54512;-57
2021/04/05 12:47:08;;;;;;;2.13;1.40;;;3.80;99.90;;;1.64;100.00;98830.72;5023677;28;57072;-61
2021/04/05 12:50:24;;;;;;;3.43;2.43;;;3.80;99.90;;;1.66;100.00;98833.22;5035730;28;52851;-60
2021/04/05 12:53:40;;;;;;;1.30;1.00;;;3.80;99.90;;;1.65;100.00;98823.63;5019672;28;64333;-60
2021/04/05 12:56:54;;;;;;;2.30;1.10;;;3.90;99.90;;;1.80;100.00;98824.91;5005247;28;58260;-59
2021/04/05 13:00:06;;;;;;;3.43;2.17;;;3.90;99.90;;;1.94;100.00;98832.41;5040554;28;49994;-61
2021/04/05 13:03:32;;;;;;;1.87;1.63;;;3.90;99.90;;;1.96;100.00;98840.19;5030979;28;51927;-57
2021/04/05 13:06:54;;;;;;;2.93;1.70;;;4.00;99.90;;;1.99;100.00;98835.44;5035613;28;51114;-58
2021/04/05 13:13:56;;;;;;;1.17;1.07;;;4.10;99.90;;;1.68;100.00;98849.72;5039287;28;50253;-60
2021/04/05 13:17:12;;;;;;;2.60;1.30;;;4.10;99.90;;;1.80;100.00;98840.72;5027739;28;61232;-59
2021/04/05 13:20:46;;;;;;;2.70;1.63;;;4.10;99.90;;;1.79;100.00;98852.25;5038342;28;46484;-61
2021/04/05 13:24:03;;;;;;;1.40;1.20;;;4.00;99.90;;;1.69;100.00;98852.22;5030514;28;62773;-61
2021/04/05 13:27:20;;;;;;;2.00;1.30;;;4.00;99.90;;;1.71;100.00;98854.75;5029792;28;54119;-61
2021/04/05 13:30:33;;;;;;;3.40;1.87;;;3.90;99.90;;;1.85;100.00;98864.06;5037167;28;50806;-62
2021/04/05 13:33:53;;;;;;;3.93;1.57;;;3.90;99.90;;;1.91;100.00;98866.97;5017161;28;56601;-61
2021/04/05 13:37:12;;;;;;;3.37;1.63;;;4.00;99.90;;;1.79;100.00;98860.16;5030840;28;52230;-60
2021/04/05 13:40:29;;;;;;;2.07;1.50;;;4.00;99.90;;;1.90;100.00;98849.47;5031798;28;54567;-60
2021/04/05 13:43:42;;;;;;;2.67;1.70;;;4.00;99.90;;;1.86;100.00;98852.50;5031446;28;56600;-59
2021/04/05 13:47:05;;;;;;;2.70;1.87;;;4.00;99.90;;;1.88;100.00;98861.97;5037528;28;49237;-61
2021/04/05 13:50:22;;;;;;;2.90;1.63;;;4.00;99.90;;;1.92;100.00;98865.16;5021370;28;57826;-61
2021/04/05 13:53:42;;;;;;;3.33;1.60;;;4.00;99.90;;;1.80;100.00;98880.28;5039532;28;52867;-61
2021/04/05 13:56:59;;;;;;;14.47;2.37;;;4.00;99.90;;;1.82;100.00;98885.41;5039004;28;50983;-61
2021/04/05 14:04:00;;;;;;;1.63;1.10;;;4.00;99.90;;;1.75;100.00;98893.88;5020747;28;48174;-62
2021/04/05 14:07:17;;;;;;;4.67;2.00;;;3.90;99.90;;;1.89;100.00;98908.47;5040448;28;56544;-64
2021/04/05 14:10:31;;;;;;;1.93;0.90;;;3.90;99.90;;;1.78;100.00;98919.97;5032056;28;45500;-63
2021/04/05 14:13:46;;;;;;;1.40;1.10;;;3.90;99.90;;;1.62;100.00;98946.00;5041121;28;49379;-62
2021/04/05 14:17:07;;;;;;;1.43;0.93;;;3.90;99.90;;;0.90;100.00;98971.63;5041933;28;50209;-63
2021/04/05 14:20:24;;;;;;;0.90;0.43;;;3.80;99.90;;;0.56;100.00;98949.91;5041659;28;52332;-61
2021/04/05 14:23:51;;;;;;;2.00;0.50;;;3.50;99.90;;;0.70;100.00;98955.72;5031628;28;49104;-63
2021/04/05 14:27:06;;;;;;;0.90;0.50;;;3.30;99.90;;;0.81;100.00;98964.50;5041304;28;46440;-60
2021/04/05 14:30:24;;;;;;;0.87;0.60;;;3.10;99.90;;;0.83;100.00;98973.09;5022428;28;52220;-62
2021/04/05 14:33:47;;;;;;;0.50;0.47;;;3.00;99.90;;;0.89;100.00;98962.03;5033572;28;53425;-60
2021/04/05 14:37:02;;;;;;;0.97;0.40;;;2.90;99.90;;;0.89;100.00;98964.69;5039831;28;49652;-61
2021/04/05 14:40:19;;;;;;;0.67;0.50;;;2.80;99.90;;;1.02;100.00;98960.03;5023038;28;48123;-62
2021/04/05 14:43:41;;;;;;;2.10;0.40;;;2.80;99.90;;;1.05;100.00;98967.69;5040808;28;48168;-61
2021/04/05 14:46:57;;;;;;;0.47;0.40;;;2.80;99.90;;;1.11;100.00;98979.53;5042907;28;45316;-62
2021/04/05 14:50:11;;;;;;;1.00;0.67;;;2.80;99.90;;;1.13;100.00;98965.22;5043568;28;48130;-61